Time;durP1;ratioP1;P1;durP2;ratioP2;P2;SDS_P1;SDS_P2;PMS_P1;PMS_P2;Temp;Humidity;BMP_temperature;BMP_pressure;BME280_temperature;BME280_humidity;BME280_pressure;Samples;Min_cycle;Max_cycle;Signal;HPM_P1;HPM_P2
2022/10/27 00:01:50;;;;;;;3.95;1.75;;;;;;;;;;5038088;28;20053;-66
2022/10/27 00:04:20;;;;;;;5.75;2.17;;;;;;;;;;5007682;28;20061;-67
2022/10/27 00:06:46;;;;;;;6.30;2.28;;;;;;;;;;5015454;28;20145;-66
2022/10/27 00:09:13;;;;;;;3.78;1.80;;;;;;;;;;5026903;28;20132;-66
2022/10/27 00:11:41;;;;;;;4.78;1.80;;;;;;;;;;5020180;28;20042;-66
2022/10/27 00:14:08;;;;;;;5.03;1.88;;;;;;;;;;5023831;28;20054;-68
2022/10/27 00:16:34;;;;;;;8.00;2.50;;;;;;;;;;5004037;28;20068;-66
2022/10/27 00:19:01;;;;;;;6.68;2.17;;;;;;;;;;5027052;28;20148;-66
2022/10/27 00:21:28;;;;;;;3.78;1.77;;;;;;;;;;5027510;28;20053;-67
2022/10/27 00:23:54;;;;;;;4.13;1.55;;;;;;;;;;5024625;28;20063;-67
2022/10/27 00:26:22;;;;;;;7.40;2.15;;;;;;;;;;5026085;28;20068;-66
2022/10/27 00:28:50;;;;;;;5.78;2.20;;;;;;;;;;5004569;28;20050;-67
2022/10/27 00:31:18;;;;;;;5.40;2.33;;;;;;;;;;5007228;28;20050;-67
2022/10/27 00:33:45;;;;;;;6.78;1.98;;;;;;;;;;5017635;28;20057;-66
2022/10/27 00:36:13;;;;;;;6.75;2.10;;;;;;;;;;5026401;28;20111;-67
2022/10/27 00:38:40;;;;;;;5.23;2.40;;;;;;;;;;5021606;28;20045;-67
2022/10/27 00:41:07;;;;;;;5.68;2.17;;;;;;;;;;5026493;28;20113;-67
2022/10/27 00:43:35;;;;;;;4.78;1.98;;;;;;;;;;5020499;28;20046;-65
2022/10/27 00:46:04;;;;;;;3.22;1.75;;;;;;;;;;5026923;28;20077;-66
2022/10/27 00:48:32;;;;;;;4.05;1.50;;;;;;;;;;5019674;28;20053;-66
2022/10/27 00:51:00;;;;;;;7.67;2.10;;;;;;;;;;5025792;28;20046;-67
2022/10/27 00:53:28;;;;;;;6.32;2.15;;;;;;;;;;5014845;28;20141;-66
2022/10/27 00:55:55;;;;;;;4.68;2.10;;;;;;;;;;5006306;28;20066;-66
2022/10/27 00:58:22;;;;;;;7.13;2.25;;;;;;;;;;5004121;28;20134;-66
2022/10/27 01:00:49;;;;;;;7.03;2.28;;;;;;;;;;5025879;28;20061;-67
2022/10/27 01:03:20;;;;;;;7.00;2.60;;;;;;;;;;5019201;28;20049;-67
2022/10/27 01:05:46;;;;;;;6.45;2.10;;;;;;;;;;5010755;28;20057;-65
2022/10/27 01:08:14;;;;;;;5.72;2.03;;;;;;;;;;5025498;28;20057;-66
2022/10/27 01:10:40;;;;;;;6.68;2.30;;;;;;;;;;5019472;28;20065;-65
2022/10/27 01:13:07;;;;;;;6.88;2.33;;;;;;;;;;5019935;28;20052;-65
2022/10/27 01:15:37;;;;;;;5.40;2.20;;;;;;;;;;5033884;28;20126;-66
2022/10/27 01:18:08;;;;;;;3.97;1.73;;;;;;;;;;5042058;28;20045;-65
2022/10/27 01:20:54;;;;;;;4.63;2.05;;;;;;;;;;5035000;28;20149;-67
2022/10/27 01:23:26;;;;;;;4.72;1.70;;;;;;;;;;5042672;28;20057;-66
2022/10/27 01:26:13;;;;;;;3.83;1.70;;;;;;;;;;5032652;28;20054;-67
2022/10/27 01:28:50;;;;;;;4.97;2.22;;;;;;;;;;5005958;28;20115;-66
2022/10/27 01:31:20;;;;;;;7.22;1.83;;;;;;;;;;5035354;28;20053;-66
2022/10/27 01:33:49;;;;;;;4.20;2.08;;;;;;;;;;5025731;28;20057;-65
2022/10/27 01:36:19;;;;;;;4.25;1.75;;;;;;;;;;5019865;28;20057;-66
2022/10/27 01:38:48;;;;;;;3.70;2.00;;;;;;;;;;5024994;28;20045;-66
2022/10/27 01:41:17;;;;;;;5.35;2.00;;;;;;;;;;5019545;28;20107;-64
2022/10/27 01:43:45;;;;;;;4.47;1.92;;;;;;;;;;5025204;28;20053;-65
2022/10/27 01:46:12;;;;;;;5.25;2.20;;;;;;;;;;5019262;28;20065;-66
2022/10/27 01:48:40;;;;;;;5.57;1.50;;;;;;;;;;5025141;28;20068;-66
2022/10/27 01:51:07;;;;;;;5.75;1.92;;;;;;;;;;5019977;28;20050;-65
2022/10/27 01:53:36;;;;;;;3.95;1.73;;;;;;;;;;5025042;28;20057;-67
2022/10/27 01:56:02;;;;;;;;;;;;;;;;;;5028636;28;20110;-67
2022/10/27 01:58:37;;;;;;;4.03;1.42;;;;;;;;;;5044485;28;19936;-64
2022/10/27 02:01:10;;;;;;;5.90;2.22;;;;;;;;;;5029702;28;20084;-65
2022/10/27 02:03:42;;;;;;;4.18;1.75;;;;;;;;;;5025005;28;20055;-66
2022/10/27 02:06:13;;;;;;;2.67;1.35;;;;;;;;;;5017199;28;20053;-67
2022/10/27 02:08:42;;;;;;;3.15;1.38;;;;;;;;;;5041103;28;20053;-65
2022/10/27 02:11:09;;;;;;;4.60;1.95;;;;;;;;;;5025707;28;20099;-66
2022/10/27 02:13:38;;;;;;;7.63;2.22;;;;;;;;;;5021212;28;20046;-67
2022/10/27 02:16:06;;;;;;;10.50;2.30;;;;;;;;;;5016129;28;20120;-65
2022/10/27 02:18:35;;;;;;;4.32;2.00;;;;;;;;;;5024717;28;20061;-66
2022/10/27 02:21:01;;;;;;;;;;;;;;;;;;5025598;28;20029;-64
2022/10/27 02:23:29;;;;;;;6.05;1.95;;;;;;;;;;5019358;28;19982;-65
2022/10/27 02:25:58;;;;;;;6.97;2.25;;;;;;;;;;5024898;28;20084;-64
2022/10/27 02:28:26;;;;;;;5.82;2.45;;;;;;;;;;5018947;28;20115;-65
2022/10/27 02:30:54;;;;;;;4.57;2.05;;;;;;;;;;5025165;28;20103;-64
2022/10/27 02:33:21;;;;;;;4.80;2.00;;;;;;;;;;5034360;28;20130;-64
2022/10/27 02:35:49;;;;;;;2.80;1.40;;;;;;;;;;5035147;28;20095;-65
2022/10/27 02:38:16;;;;;;;6.80;2.53;;;;;;;;;;5036332;28;20061;-65
2022/10/27 02:40:44;;;;;;;3.45;1.83;;;;;;;;;;5041252;28;20061;-67
2022/10/27 02:43:10;;;;;;;7.18;2.10;;;;;;;;;;5035973;28;20053;-67
2022/10/27 02:45:37;;;;;;;4.50;2.22;;;;;;;;;;5024888;28;20053;-66
2022/10/27 02:48:04;;;;;;;7.35;1.88;;;;;;;;;;5027670;28;20064;-66
2022/10/27 02:50:31;;;;;;;2.90;1.50;;;;;;;;;;5038981;28;20092;-66
2022/10/27 02:52:57;;;;;;;5.53;1.98;;;;;;;;;;5020077;28;20053;-66
2022/10/27 02:55:24;;;;;;;4.43;2.03;;;;;;;;;;5028093;28;20049;-66
2022/10/27 02:57:52;;;;;;;6.05;1.50;;;;;;;;;;5021631;28;20063;-66
2022/10/27 03:00:19;;;;;;;9.07;2.22;;;;;;;;;;5027429;28;20190;-66
2022/10/27 03:02:47;;;;;;;5.70;1.92;;;;;;;;;;5024333;28;20064;-66
2022/10/27 03:05:15;;;;;;;5.03;1.90;;;;;;;;;;5023796;28;20073;-67
2022/10/27 03:07:43;;;;;;;8.13;2.53;;;;;;;;;;5027774;28;20115;-64
2022/10/27 03:10:10;;;;;;;4.32;1.45;;;;;;;;;;5021993;28;20299;-66
2022/10/27 03:12:36;;;;;;;5.03;2.17;;;;;;;;;;5026631;28;20106;-65
2022/10/27 03:15:06;;;;;;;4.20;1.92;;;;;;;;;;5021320;28;20063;-65
2022/10/27 03:17:33;;;;;;;4.70;2.00;;;;;;;;;;5031217;28;20480;-65
2022/10/27 03:19:59;;;;;;;4.75;1.90;;;;;;;;;;5025361;28;20067;-65
2022/10/27 03:22:26;;;;;;;8.20;2.30;;;;;;;;;;5027629;28;20062;-66
2022/10/27 03:24:53;;;;;;;8.20;2.30;;;;;;;;;;5015791;28;20045;-66
2022/10/27 03:27:19;;;;;;;6.03;1.65;;;;;;;;;;5011521;28;20089;-66
2022/10/27 03:29:46;;;;;;;2.33;1.30;;;;;;;;;;5015153;28;20049;-66
2022/10/27 03:32:14;;;;;;;7.65;2.30;;;;;;;;;;5030928;28;20056;-67
2022/10/27 03:34:40;;;;;;;11.07;2.35;;;;;;;;;;5024669;28;20053;-64
2022/10/27 03:37:07;;;;;;;6.25;2.33;;;;;;;;;;5030809;28;20159;-66
2022/10/27 03:39:33;;;;;;;4.18;1.75;;;;;;;;;;5024461;28;20049;-65
2022/10/27 03:42:00;;;;;;;9.88;2.00;;;;;;;;;;5030439;28;20052;-66
2022/10/27 03:44:27;;;;;;;6.32;2.42;;;;;;;;;;5025423;28;20098;-66
2022/10/27 03:46:53;;;;;;;4.95;2.03;;;;;;;;;;5016609;28;20060;-64
2022/10/27 03:49:21;;;;;;;7.55;2.13;;;;;;;;;;5030992;28;20063;-66
2022/10/27 03:51:48;;;;;;;5.63;2.10;;;;;;;;;;5024851;28;20059;-67
2022/10/27 03:54:14;;;;;;;6.68;2.38;;;;;;;;;;5031085;28;20053;-66
2022/10/27 03:56:40;;;;;;;3.47;1.75;;;;;;;;;;5024240;28;20049;-64
2022/10/27 03:59:08;;;;;;;8.27;2.88;;;;;;;;;;5031175;28;20057;-66
2022/10/27 04:01:35;;;;;;;6.15;2.28;;;;;;;;;;5033585;28;20045;-65
2022/10/27 04:04:03;;;;;;;4.90;2.47;;;;;;;;;;5030366;28;20172;-66
2022/10/27 04:06:33;;;;;;;4.20;2.03;;;;;;;;;;5021071;28;20049;-64
2022/10/27 04:08:59;;;;;;;5.05;2.25;;;;;;;;;;5030062;28;20303;-67
2022/10/27 04:11:28;;;;;;;4.07;1.40;;;;;;;;;;5024936;28;20055;-66
2022/10/27 04:13:55;;;;;;;3.45;1.70;;;;;;;;;;5021911;28;20057;-66
2022/10/27 04:16:21;;;;;;;6.22;2.25;;;;;;;;;;5027681;28;20060;-66
2022/10/27 04:18:48;;;;;;;6.22;2.47;;;;;;;;;;5046439;28;20119;-65
2022/10/27 04:21:14;;;;;;;8.45;3.58;;;;;;;;;;5039810;28;20135;-64
2022/10/27 04:23:42;;;;;;;7.80;2.38;;;;;;;;;;5030668;28;20049;-66
2022/10/27 04:26:09;;;;;;;3.90;2.10;;;;;;;;;;5024406;28;20076;-66
2022/10/27 04:28:36;;;;;;;6.70;2.60;;;;;;;;;;5029744;28;20080;-66
2022/10/27 04:31:03;;;;;;;8.77;2.85;;;;;;;;;;5030437;28;20055;-65
2022/10/27 04:33:29;;;;;;;7.10;2.42;;;;;;;;;;5006315;28;20126;-66
2022/10/27 04:35:56;;;;;;;9.05;2.30;;;;;;;;;;5020270;28;20049;-67
2022/10/27 04:38:22;;;;;;;5.68;2.40;;;;;;;;;;5021052;28;20200;-67
2022/10/27 04:40:50;;;;;;;7.07;2.75;;;;;;;;;;5026052;28;20046;-67
2022/10/27 04:43:17;;;;;;;9.57;2.83;;;;;;;;;;5035329;28;20064;-66
2022/10/27 04:45:45;;;;;;;10.38;2.20;;;;;;;;;;5047096;28;20044;-66
2022/10/27 04:48:12;;;;;;;7.85;2.90;;;;;;;;;;5039651;28;20057;-65
2022/10/27 04:50:38;;;;;;;4.30;1.70;;;;;;;;;;5029564;28;20078;-66
2022/10/27 04:53:06;;;;;;;3.65;1.83;;;;;;;;;;5023446;28;20122;-66
2022/10/27 04:55:33;;;;;;;9.65;2.90;;;;;;;;;;5031035;28;20052;-67
2022/10/27 04:58:01;;;;;;;8.75;2.95;;;;;;;;;;5030255;28;20096;-66
2022/10/27 05:00:27;;;;;;;6.53;2.80;;;;;;;;;;5033596;28;20060;-67
2022/10/27 05:02:55;;;;;;;5.57;1.90;;;;;;;;;;5018122;28;20036;-66
2022/10/27 05:05:21;;;;;;;10.23;2.95;;;;;;;;;;5020753;28;20132;-66
2022/10/27 05:07:51;;;;;;;5.32;2.30;;;;;;;;;;5016598;28;20070;-67
2022/10/27 05:10:17;;;;;;;3.20;1.60;;;;;;;;;;5021979;28;20052;-66
2022/10/27 05:12:44;;;;;;;6.60;2.65;;;;;;;;;;5023621;28;20052;-67
2022/10/27 05:15:12;;;;;;;8.05;2.60;;;;;;;;;;5017847;28;20042;-67
2022/10/27 05:17:38;;;;;;;4.55;1.70;;;;;;;;;;5022017;28;20073;-65
2022/10/27 05:20:05;;;;;;;8.10;1.70;;;;;;;;;;5018197;28;20147;-65
2022/10/27 05:22:32;;;;;;;4.53;2.03;;;;;;;;;;5025082;28;20120;-67
2022/10/27 05:24:58;;;;;;;5.80;2.22;;;;;;;;;;5018531;28;20061;-66
2022/10/27 05:27:25;;;;;;;6.47;2.25;;;;;;;;;;5023827;28;20064;-65
2022/10/27 05:29:51;;;;;;;4.03;1.70;;;;;;;;;;5016852;28;20058;-66
2022/10/27 05:32:19;;;;;;;6.53;2.17;;;;;;;;;;5022993;28;20067;-66
2022/10/27 05:34:47;;;;;;;3.63;1.85;;;;;;;;;;5027698;28;20062;-65
2022/10/27 05:37:14;;;;;;;4.07;1.90;;;;;;;;;;5021309;28;20062;-67
2022/10/27 05:39:40;;;;;;;8.05;2.33;;;;;;;;;;5016255;28;20061;-66
2022/10/27 05:42:07;;;;;;;3.78;1.70;;;;;;;;;;5022210;28;20053;-66
2022/10/27 05:44:34;;;;;;;5.65;1.95;;;;;;;;;;5023575;28;20135;-66
2022/10/27 05:47:01;;;;;;;6.07;1.95;;;;;;;;;;5040869;28;20068;-66
2022/10/27 05:49:30;;;;;;;7.25;2.60;;;;;;;;;;5022289;28;20064;-66
2022/10/27 05:51:57;;;;;;;3.58;1.80;;;;;;;;;;5036243;28;20059;-67
2022/10/27 05:54:36;;;;;;;4.65;2.20;;;;;;;;;;5047984;28;20051;-66
2022/10/27 05:57:02;;;;;;;6.70;1.80;;;;;;;;;;5050848;28;20063;-66
2022/10/27 05:59:31;;;;;;;6.80;2.05;;;;;;;;;;5060857;28;20041;-67
2022/10/27 06:01:58;;;;;;;9.60;3.10;;;;;;;;;;5026031;28;20045;-66
2022/10/27 06:04:25;;;;;;;6.00;2.15;;;;;;;;;;5029056;28;20103;-65
2022/10/27 06:06:53;;;;;;;4.78;2.25;;;;;;;;;;5029390;28;20068;-65
2022/10/27 06:09:19;;;;;;;4.28;1.80;;;;;;;;;;5027716;28;20049;-66
2022/10/27 06:11:46;;;;;;;5.65;1.65;;;;;;;;;;5023280;28;20062;-65
2022/10/27 06:14:12;;;;;;;6.60;2.10;;;;;;;;;;5031063;28;20049;-65
2022/10/27 06:16:39;;;;;;;5.32;1.77;;;;;;;;;;5024991;28;20053;-65
2022/10/27 06:19:05;;;;;;;4.63;2.03;;;;;;;;;;5031115;28;20045;-64
2022/10/27 06:21:32;;;;;;;4.75;1.90;;;;;;;;;;5017139;28;20045;-65
2022/10/27 06:24:00;;;;;;;5.75;1.67;;;;;;;;;;5011722;28;20144;-66
2022/10/27 06:26:35;;;;;;;10.13;2.13;;;;;;;;;;5025207;28;20045;-66
2022/10/27 06:29:01;;;;;;;3.95;1.60;;;;;;;;;;5029417;28;20041;-66
2022/10/27 06:31:28;;;;;;;7.57;2.35;;;;;;;;;;5026279;28;20049;-67
2022/10/27 06:33:55;;;;;;;4.18;1.70;;;;;;;;;;5030394;28;20052;-67
2022/10/27 06:36:25;;;;;;;4.47;1.85;;;;;;;;;;5026540;28;20819;-67
2022/10/27 06:38:51;;;;;;;4.80;1.90;;;;;;;;;;5030395;28;20052;-67
2022/10/27 06:41:19;;;;;;;7.75;1.85;;;;;;;;;;5027027;28;20148;-66
2022/10/27 06:43:46;;;;;;;3.65;1.77;;;;;;;;;;5028025;28;20049;-67
2022/10/27 06:46:13;;;;;;;3.53;1.50;;;;;;;;;;5045987;28;20099;-68
2022/10/27 06:48:39;;;;;;;9.88;1.92;;;;;;;;;;5025810;28;20049;-68
2022/10/27 06:51:08;;;;;;;3.50;1.50;;;;;;;;;;5029790;28;20075;-68
2022/10/27 06:53:34;;;;;;;5.15;2.00;;;;;;;;;;5023993;28;20054;-67
2022/10/27 06:56:01;;;;;;;2.95;1.52;;;;;;;;;;5037744;28;20045;-68
2022/10/27 06:58:29;;;;;;;6.53;1.73;;;;;;;;;;5035294;28;20061;-67
2022/10/27 07:00:55;;;;;;;8.23;1.88;;;;;;;;;;5047283;28;20072;-68
2022/10/27 07:03:22;;;;;;;4.45;1.70;;;;;;;;;;5031546;28;20049;-67
2022/10/27 07:05:48;;;;;;;3.85;1.48;;;;;;;;;;5031700;28;20091;-68
2022/10/27 07:08:15;;;;;;;5.97;1.58;;;;;;;;;;5033759;28;20045;-67
2022/10/27 07:10:42;;;;;;;4.13;1.38;;;;;;;;;;5050800;28;20128;-67
2022/10/27 07:13:08;;;;;;;4.78;1.63;;;;;;;;;;5046974;28;20044;-69
2022/10/27 07:15:40;;;;;;;3.13;1.48;;;;;;;;;;5050830;28;20060;-68
2022/10/27 07:18:08;;;;;;;6.40;2.10;;;;;;;;;;5044812;28;20049;-68
2022/10/27 07:20:37;;;;;;;2.33;1.33;;;;;;;;;;5050392;28;20076;-69
2022/10/27 07:23:04;;;;;;;4.28;2.15;;;;;;;;;;5040720;28;20055;-68
2022/10/27 07:25:40;;;;;;;4.60;1.60;;;;;;;;;;5041119;28;20111;-69
2022/10/27 07:28:06;;;;;;;6.85;2.05;;;;;;;;;;5045530;28;20049;-67
2022/10/27 07:30:34;;;;;;;5.50;1.92;;;;;;;;;;5031683;28;20079;-68
2022/10/27 07:33:02;;;;;;;3.38;1.65;;;;;;;;;;5033742;28;20061;-68
2022/10/27 07:35:30;;;;;;;2.80;1.40;;;;;;;;;;5034982;28;20059;-68
2022/10/27 07:37:57;;;;;;;5.00;1.67;;;;;;;;;;5034001;28;20106;-69
2022/10/27 07:40:24;;;;;;;4.03;1.65;;;;;;;;;;5029220;28;20053;-68
2022/10/27 07:42:51;;;;;;;6.70;2.00;;;;;;;;;;5033474;28;20055;-68
2022/10/27 07:45:20;;;;;;;5.82;1.63;;;;;;;;;;5045983;28;20063;-67
2022/10/27 07:47:46;;;;;;;;;;;;;;;;;;5033690;28;20142;-69
2022/10/27 07:50:14;;;;;;;3.95;1.45;;;;;;;;;;5028385;28;19931;-69
2022/10/27 07:52:42;;;;;;;6.03;1.58;;;;;;;;;;5033775;28;20061;-68
2022/10/27 07:55:09;;;;;;;6.15;1.90;;;;;;;;;;5030575;28;20052;-68
2022/10/27 07:57:35;;;;;;;3.28;1.48;;;;;;;;;;5033864;28;20060;-68
2022/10/27 08:00:02;;;;;;;4.20;1.48;;;;;;;;;;5027463;28;20049;-68
2022/10/27 08:02:28;;;;;;;6.20;1.65;;;;;;;;;;5033241;28;20136;-69
2022/10/27 08:04:56;;;;;;;6.25;2.30;;;;;;;;;;5022828;28;20106;-67
2022/10/27 08:07:24;;;;;;;3.83;1.77;;;;;;;;;;5028760;28;20057;-68
2022/10/27 08:09:51;;;;;;;4.20;1.70;;;;;;;;;;5024102;28;20045;-67
2022/10/27 08:12:17;;;;;;;5.95;2.13;;;;;;;;;;5032526;28;20053;-68
2022/10/27 08:14:48;;;;;;;4.88;1.85;;;;;;;;;;5028601;28;20067;-69
2022/10/27 08:17:15;;;;;;;5.95;1.80;;;;;;;;;;5026613;28;20044;-70
2022/10/27 08:19:41;;;;;;;5.10;1.88;;;;;;;;;;5031426;28;20060;-66
2022/10/27 08:22:08;;;;;;;5.68;1.98;;;;;;;;;;5024748;28;20057;-68
2022/10/27 08:24:41;;;;;;;6.35;1.90;;;;;;;;;;5029268;28;20050;-68
2022/10/27 08:27:07;;;;;;;5.28;1.73;;;;;;;;;;5027408;28;20049;-69
2022/10/27 08:29:34;;;;;;;5.18;1.98;;;;;;;;;;5032746;28;20095;-68
2022/10/27 08:32:01;;;;;;;5.00;1.60;;;;;;;;;;5026116;28;20041;-67
2022/10/27 08:34:32;;;;;;;4.30;1.55;;;;;;;;;;5032940;28;20059;-66
2022/10/27 08:36:59;;;;;;;4.35;1.70;;;;;;;;;;5027511;28;20136;-67
2022/10/27 08:39:25;;;;;;;2.88;1.45;;;;;;;;;;5030413;28;20053;-65
2022/10/27 08:41:56;;;;;;;5.38;1.70;;;;;;;;;;5026586;28;20087;-65
2022/10/27 08:44:25;;;;;;;10.07;1.80;;;;;;;;;;5032797;28;20053;-67
2022/10/27 08:46:53;;;;;;;7.03;1.73;;;;;;;;;;5023581;28;20052;-65
2022/10/27 08:49:24;;;;;;;3.38;1.63;;;;;;;;;;5029543;28;20053;-64
2022/10/27 08:51:51;;;;;;;9.93;1.88;;;;;;;;;;5027988;28;20069;-64
2022/10/27 08:54:17;;;;;;;4.55;1.70;;;;;;;;;;5031893;28;20060;-67
2022/10/27 08:56:44;;;;;;;5.85;1.90;;;;;;;;;;5023713;28;20057;-67
2022/10/27 08:59:19;;;;;;;6.68;2.00;;;;;;;;;;5028813;28;20057;-67
2022/10/27 09:01:51;;;;;;;8.02;2.00;;;;;;;;;;5028366;28;20067;-68
2022/10/27 09:04:36;;;;;;;11.10;1.80;;;;;;;;;;5011533;28;20049;-66
2022/10/27 09:07:10;;;;;;;5.47;2.00;;;;;;;;;;5027272;28;20064;-68
2022/10/27 09:09:41;;;;;;;4.75;1.85;;;;;;;;;;5030939;28;20049;-66
2022/10/27 09:12:14;;;;;;;3.90;1.40;;;;;;;;;;5028908;28;20072;-67
2022/10/27 09:15:02;;;;;;;4.95;1.65;;;;;;;;;;5028351;28;20080;-67
2022/10/27 09:17:32;;;;;;;6.28;1.80;;;;;;;;;;5027483;28;20109;-66
2022/10/27 09:20:01;;;;;;;4.13;1.60;;;;;;;;;;5029209;28;20060;-67
2022/10/27 09:22:27;;;;;;;;;;;;;;;;;;5029363;28;20053;-67
2022/10/27 09:25:06;;;;;;;3.85;1.30;;;;;;;;;;5010164;28;19924;-68
2022/10/27 09:27:33;;;;;;;4.28;1.58;;;;;;;;;;5031897;28;20057;-67
2022/10/27 09:30:04;;;;;;;4.50;1.50;;;;;;;;;;5025679;28;20053;-67
2022/10/27 09:32:33;;;;;;;6.95;1.70;;;;;;;;;;5028876;28;20045;-67
2022/10/27 09:35:04;;;;;;;3.22;1.40;;;;;;;;;;5026513;28;20045;-67
2022/10/27 09:37:32;;;;;;;4.97;1.60;;;;;;;;;;5011782;28;20064;-67
2022/10/27 09:39:59;;;;;;;2.27;1.20;;;;;;;;;;5021877;28;20139;-68
2022/10/27 09:42:26;;;;;;;2.97;1.40;;;;;;;;;;5030796;28;20045;-66
2022/10/27 09:44:55;;;;;;;3.15;1.23;;;;;;;;;;5027334;28;20076;-66
2022/10/27 09:47:22;;;;;;;3.35;1.25;;;;;;;;;;5028389;28;20458;-68
2022/10/27 09:49:52;;;;;;;6.82;1.42;;;;;;;;;;5016065;28;20053;-65
2022/10/27 09:52:22;;;;;;;3.58;1.30;;;;;;;;;;5029715;28;20103;-67
2022/10/27 09:54:54;;;;;;;9.50;1.63;;;;;;;;;;5022311;28;20053;-67
2022/10/27 09:57:23;;;;;;;6.82;1.15;;;;;;;;;;5027737;28;20136;-67
2022/10/27 09:59:55;;;;;;;2.83;1.30;;;;;;;;;;5020137;28;20052;-65
2022/10/27 10:02:23;;;;;;;2.58;0.93;;;;;;;;;;5029560;28;20049;-68
2022/10/27 10:04:52;;;;;;;4.30;1.27;;;;;;;;;;5021003;28;20052;-68
2022/10/27 10:07:30;;;;;;;4.88;1.40;;;;;;;;;;5028368;28;20061;-66
2022/10/27 10:10:00;;;;;;;2.75;1.10;;;;;;;;;;5025484;28;20052;-68
2022/10/27 10:12:26;;;;;;;5.63;1.58;;;;;;;;;;5027277;28;20041;-67
2022/10/27 10:17:54;;;;;;;5.95;1.08;;;;;;;;;;5031118;28;20048;-67
2022/10/27 10:20:31;;;;;;;3.53;1.20;;;;;;;;;;5022634;28;20054;-65
2022/10/27 10:22:58;;;;;;;4.65;1.30;;;;;;;;;;5028942;28;20179;-67
2022/10/27 10:25:31;;;;;;;21.52;1.67;;;;;;;;;;5026520;28;20118;-66
2022/10/27 10:27:59;;;;;;;7.75;1.30;;;;;;;;;;5030064;28;20057;-68
2022/10/27 10:30:26;;;;;;;2.20;0.95;;;;;;;;;;5029052;28;20080;-66
2022/10/27 10:32:54;;;;;;;1.70;0.85;;;;;;;;;;5031844;28;20041;-67
2022/10/27 10:38:27;;;;;;;4.30;1.23;;;;;;;;;;5035053;28;20122;-67
2022/10/27 10:41:01;;;;;;;2.20;0.80;;;;;;;;;;5027235;28;20077;-67
2022/10/27 10:43:29;;;;;;;3.20;0.88;;;;;;;;;;5031675;28;20081;-64
2022/10/27 10:45:59;;;;;;;2.20;0.75;;;;;;;;;;5027101;28;20082;-66
2022/10/27 10:48:30;;;;;;;4.95;0.80;;;;;;;;;;5030991;28;20049;-67
2022/10/27 10:50:58;;;;;;;4.57;0.98;;;;;;;;;;5031900;28;20049;-66
2022/10/27 10:53:26;;;;;;;2.85;1.00;;;;;;;;;;5034032;28;20059;-64
2022/10/27 10:55:55;;;;;;;6.22;0.90;;;;;;;;;;5031873;28;20045;-68
2022/10/27 10:58:23;;;;;;;7.05;0.90;;;;;;;;;;5021231;28;20053;-65
2022/10/27 11:00:54;;;;;;;4.22;1.00;;;;;;;;;;5015092;28;20057;-65
2022/10/27 11:03:21;;;;;;;3.83;1.02;;;;;;;;;;5012634;28;20065;-68
2022/10/27 11:05:53;;;;;;;2.78;0.98;;;;;;;;;;5014226;28;20054;-67
2022/10/27 11:08:21;;;;;;;5.03;1.10;;;;;;;;;;5044726;28;20060;-65
2022/10/27 11:10:49;;;;;;;3.85;1.20;;;;;;;;;;5033985;28;20110;-65
2022/10/27 11:13:18;;;;;;;2.23;1.00;;;;;;;;;;5025383;28;20179;-64
2022/10/27 11:15:48;;;;;;;4.35;1.10;;;;;;;;;;5041342;28;20087;-66
2022/10/27 11:18:16;;;;;;;5.60;1.25;;;;;;;;;;5019907;28;20148;-65
2022/10/27 11:20:44;;;;;;;4.63;1.95;;;;;;;;;;5013963;28;20053;-64
2022/10/27 11:23:14;;;;;;;3.00;1.55;;;;;;;;;;5017644;28;20045;-64
2022/10/27 11:25:42;;;;;;;2.47;1.17;;;;;;;;;;5034702;28;20148;-62
2022/10/27 11:28:15;;;;;;;3.60;1.40;;;;;;;;;;5040249;28;20041;-64
2022/10/27 11:30:47;;;;;;;3.78;1.08;;;;;;;;;;5012904;28;20061;-65
2022/10/27 11:33:20;;;;;;;2.67;1.10;;;;;;;;;;5013203;28;20060;-65
2022/10/27 11:35:51;;;;;;;5.00;1.02;;;;;;;;;;5032430;28;20049;-68
2022/10/27 11:38:21;;;;;;;2.40;0.80;;;;;;;;;;5027239;28;20044;-68
2022/10/27 11:40:50;;;;;;;6.90;1.67;;;;;;;;;;5033312;28;20049;-68
2022/10/27 11:43:18;;;;;;;5.63;1.67;;;;;;;;;;5028377;28;20091;-64
2022/10/27 11:45:50;;;;;;;6.18;1.50;;;;;;;;;;5033462;28;20052;-67
2022/10/27 11:48:20;;;;;;;2.65;1.10;;;;;;;;;;5028015;28;20059;-65
2022/10/27 11:50:48;;;;;;;3.22;1.20;;;;;;;;;;5013446;28;20057;-68
2022/10/27 11:53:15;;;;;;;5.18;1.17;;;;;;;;;;5033176;28;20056;-67
2022/10/27 11:55:49;;;;;;;3.15;1.27;;;;;;;;;;5027075;28;20071;-66
2022/10/27 11:58:23;;;;;;;2.78;1.00;;;;;;;;;;5032657;28;20057;-64
2022/10/27 12:00:55;;;;;;;3.20;1.10;;;;;;;;;;5010266;28;20073;-67
2022/10/27 12:03:31;;;;;;;2.83;1.15;;;;;;;;;;5030900;28;20049;-67
2022/10/27 12:06:00;;;;;;;5.30;1.00;;;;;;;;;;5040396;28;20056;-66
2022/10/27 12:08:35;;;;;;;3.40;0.90;;;;;;;;;;5029050;28;20137;-68
2022/10/27 12:11:07;;;;;;;5.53;1.23;;;;;;;;;;5025067;28;20083;-67
2022/10/27 12:13:39;;;;;;;2.22;1.05;;;;;;;;;;5038774;28;20111;-67
2022/10/27 12:16:11;;;;;;;4.75;1.10;;;;;;;;;;5020505;28;20049;-67
2022/10/27 12:18:42;;;;;;;2.75;0.85;;;;;;;;;;5011986;28;20053;-65
2022/10/27 12:21:13;;;;;;;5.03;1.10;;;;;;;;;;5021679;28;20075;-67
2022/10/27 12:23:42;;;;;;;2.25;0.68;;;;;;;;;;5013147;28;20057;-67
2022/10/27 12:26:14;;;;;;;2.55;0.95;;;;;;;;;;5019973;28;20052;-67
2022/10/27 12:28:41;;;;;;;3.35;0.98;;;;;;;;;;5012229;28;20053;-68
2022/10/27 12:31:14;;;;;;;6.93;1.30;;;;;;;;;;5034727;28;20049;-69
2022/10/27 12:33:43;;;;;;;4.13;1.30;;;;;;;;;;5032201;28;20068;-66
2022/10/27 12:36:15;;;;;;;4.10;1.23;;;;;;;;;;5027192;28;20048;-66
2022/10/27 12:38:45;;;;;;;3.33;0.90;;;;;;;;;;5031203;28;20098;-67
2022/10/27 12:41:16;;;;;;;3.35;1.00;;;;;;;;;;5025485;28;20056;-63
2022/10/27 12:43:46;;;;;;;3.45;1.20;;;;;;;;;;5010637;28;20064;-66
2022/10/27 12:46:21;;;;;;;2.63;1.15;;;;;;;;;;5030436;28;20044;-68
2022/10/27 12:48:52;;;;;;;1.42;0.93;;;;;;;;;;5030716;28;20064;-69
2022/10/27 12:51:26;;;;;;;2.75;1.17;;;;;;;;;;5025390;28;20135;-69
2022/10/27 12:53:54;;;;;;;3.55;1.13;;;;;;;;;;5011849;28;20053;-68
2022/10/27 12:56:28;;;;;;;2.45;1.10;;;;;;;;;;5023440;28;20041;-69
2022/10/27 12:58:57;;;;;;;2.38;1.10;;;;;;;;;;5035203;28;20146;-69
2022/10/27 13:01:29;;;;;;;3.05;1.15;;;;;;;;;;5016022;28;20058;-68
2022/10/27 13:04:05;;;;;;;1.75;0.95;;;;;;;;;;5024290;28;20049;-68
2022/10/27 13:06:37;;;;;;;5.18;1.52;;;;;;;;;;5016450;28;20115;-69
2022/10/27 13:09:16;;;;;;;3.38;1.40;;;;;;;;;;5007299;28;20061;-69
2022/10/27 13:11:52;;;;;;;3.83;1.25;;;;;;;;;;5003852;28;20058;-68
2022/10/27 13:14:30;;;;;;;3.50;1.38;;;;;;;;;;5023511;28;20046;-69
2022/10/27 13:17:00;;;;;;;4.20;1.30;;;;;;;;;;5021702;28;20168;-66
2022/10/27 13:19:35;;;;;;;2.97;1.30;;;;;;;;;;5027340;28;20107;-68
2022/10/27 13:22:06;;;;;;;1.70;1.05;;;;;;;;;;5019199;28;20045;-69
2022/10/27 13:24:37;;;;;;;4.68;1.08;;;;;;;;;;5007706;28;20054;-69
2022/10/27 13:27:06;;;;;;;4.25;1.00;;;;;;;;;;5003923;28;20050;-68
2022/10/27 13:29:36;;;;;;;4.07;0.90;;;;;;;;;;5042480;28;20053;-67
2022/10/27 13:32:17;;;;;;;3.22;1.35;;;;;;;;;;5023713;28;20041;-68
2022/10/27 13:35:01;;;;;;;4.28;1.13;;;;;;;;;;5042485;28;20053;-69
2022/10/27 13:37:37;;;;;;;7.85;1.10;;;;;;;;;;5016808;28;20065;-65
2022/10/27 13:40:24;;;;;;;3.35;1.05;;;;;;;;;;5016644;28;20053;-67
2022/10/27 13:42:52;;;;;;;3.28;1.20;;;;;;;;;;5021830;28;20053;-69
2022/10/27 13:45:41;;;;;;;3.05;1.20;;;;;;;;;;5027627;28;20131;-69
2022/10/27 13:48:26;;;;;;;4.22;1.42;;;;;;;;;;5021079;28;20045;-71
2022/10/27 13:50:55;;;;;;;4.95;1.50;;;;;;;;;;5028124;28;20123;-66
2022/10/27 13:53:31;;;;;;;3.88;1.33;;;;;;;;;;5022655;28;20065;-68
2022/10/27 13:56:00;;;;;;;3.03;1.08;;;;;;;;;;5030438;28;20083;-69
2022/10/27 13:58:34;;;;;;;7.15;1.40;;;;;;;;;;5042304;28;20064;-67
2022/10/27 14:01:06;;;;;;;5.45;1.30;;;;;;;;;;5031032;28;20097;-65
2022/10/27 14:03:42;;;;;;;2.38;1.30;;;;;;;;;;5026589;28;20072;-69
2022/10/27 14:06:30;;;;;;;3.15;1.15;;;;;;;;;;5029005;28;20045;-68
2022/10/27 14:08:58;;;;;;;2.22;1.10;;;;;;;;;;5024997;28;20804;-70
2022/10/27 14:11:27;;;;;;;7.18;1.23;;;;;;;;;;5031457;28;20063;-69
2022/10/27 14:13:55;;;;;;;5.88;1.20;;;;;;;;;;5024823;28;20056;-65
2022/10/27 14:16:26;;;;;;;4.97;1.17;;;;;;;;;;5010922;28;20083;-69
2022/10/27 14:18:59;;;;;;;3.55;1.15;;;;;;;;;;5043226;28;20106;-65
2022/10/27 14:21:26;;;;;;;2.78;1.13;;;;;;;;;;5025568;28;20045;-67
2022/10/27 14:23:55;;;;;;;4.85;1.75;;;;;;;;;;5031189;28;20134;-69
2022/10/27 14:26:28;;;;;;;3.10;1.40;;;;;;;;;;5026805;28;20061;-69
2022/10/27 14:28:54;;;;;;;4.13;1.52;;;;;;;;;;5030586;28;20076;-66
2022/10/27 14:31:22;;;;;;;5.82;1.60;;;;;;;;;;5025776;28;20057;-64
2022/10/27 14:33:49;;;;;;;3.28;1.40;;;;;;;;;;5030997;28;20060;-67
2022/10/27 14:36:27;;;;;;;4.65;1.40;;;;;;;;;;5026019;28;20069;-69
2022/10/27 14:38:59;;;;;;;2.25;1.10;;;;;;;;;;5030462;28;20114;-66
2022/10/27 14:41:31;;;;;;;3.20;1.33;;;;;;;;;;5026048;28;20056;-68
2022/10/27 14:43:58;;;;;;;4.18;1.20;;;;;;;;;;5031196;28;20048;-70
2022/10/27 14:46:28;;;;;;;5.38;1.25;;;;;;;;;;5025854;28;20057;-69
2022/10/27 14:48:57;;;;;;;6.53;1.20;;;;;;;;;;5027380;28;20058;-69
2022/10/27 14:51:24;;;;;;;6.10;1.50;;;;;;;;;;5022715;28;20049;-67
2022/10/27 14:53:52;;;;;;;5.13;1.55;;;;;;;;;;5027366;28;20045;-70
2022/10/27 14:56:22;;;;;;;12.40;1.47;;;;;;;;;;5025600;28;20107;-68
2022/10/27 14:58:50;;;;;;;5.43;1.40;;;;;;;;;;5029837;28;20045;-65
2022/10/27 15:01:20;;;;;;;3.97;1.42;;;;;;;;;;5022685;28;20132;-69